createdAt,value
2022-12-12T00:03:53.730Z,18.75
2022-12-12T00:07:34.505Z,18.15
2022-12-12T00:14:16.804Z,17.55
2022-12-12T00:17:44.093Z,18.35
2022-12-12T00:21:18.928Z,18.55
2022-12-12T00:28:08.630Z,18.05
2022-12-12T00:31:31.255Z,17.67
2022-12-12T00:34:50.472Z,18.30
2022-12-12T00:38:14.020Z,17.55
2022-12-12T00:41:43.474Z,17.02
2022-12-12T00:45:16.653Z,17.07
2022-12-12T00:48:58.373Z,16.70
2022-12-12T00:52:21.312Z,16.40
2022-12-12T00:55:47.206Z,16.80
2022-12-12T00:59:43.795Z,17.10
2022-12-12T01:06:46.449Z,16.05
2022-12-12T01:10:18.751Z,16.27
2022-12-12T01:13:37.222Z,16.60
2022-12-12T01:17:17.736Z,16.75
2022-12-12T01:20:52.962Z,17.48
2022-12-12T01:24:27.755Z,16.48
2022-12-12T01:28:08.662Z,16.15
2022-12-12T01:34:56.592Z,15.90
2022-12-12T01:38:32.223Z,15.48
2022-12-12T01:41:56.071Z,14.65
2022-12-12T01:46:08.408Z,14.63
2022-12-12T01:49:51.432Z,14.60
2022-12-12T01:56:53.067Z,14.73
2022-12-12T02:00:50.642Z,14.15
2022-12-12T02:04:15.979Z,12.88
2022-12-12T02:07:48.973Z,15.38
2022-12-12T02:11:27.671Z,13.75
2022-12-12T02:15:01.803Z,13.50
2022-12-12T02:18:51.743Z,14.28
2022-12-12T02:22:15.841Z,14.10
2022-12-12T02:26:17.792Z,14.93
2022-12-12T02:34:31.623Z,13.30
2022-12-12T02:38:50.324Z,14.47
2022-12-12T02:46:13.407Z,13.28
2022-12-12T02:49:58.556Z,14.50
2022-12-12T02:53:24.791Z,14.23
2022-12-12T02:57:15.358Z,13.10
2022-12-12T03:00:38.195Z,13.08
2022-12-12T03:04:32.305Z,13.43
2022-12-12T03:08:25.208Z,13.58
2022-12-12T03:15:40.985Z,14.33
2022-12-12T03:19:37.413Z,14.30
2022-12-12T03:23:14.761Z,14.07
2022-12-12T03:27:04.780Z,13.38
2022-12-12T03:30:39.581Z,12.37
2022-12-12T03:34:16.046Z,13.62
2022-12-12T03:37:52.847Z,14.60
2022-12-12T03:41:27.284Z,13.78
2022-12-12T03:45:06.206Z,15.20
2022-12-12T03:48:59.638Z,14.83
2022-12-12T03:52:39.478Z,14.93
2022-12-12T03:56:28.779Z,14.10
2022-12-12T04:03:42.731Z,14.53
2022-12-12T04:07:27.352Z,14.15
2022-12-12T04:11:04.955Z,15.75
2022-12-12T04:14:56.375Z,15.08
2022-12-12T04:18:45.480Z,14.95
2022-12-12T04:22:27.430Z,15.25
2022-12-12T04:26:28.950Z,14.63
2022-12-12T04:29:49.933Z,15.83
2022-12-12T04:33:32.938Z,14.95
2022-12-12T04:37:00.873Z,14.78
2022-12-12T04:40:25.326Z,16.17
2022-12-12T04:43:42.725Z,14.65
2022-12-12T04:46:56.704Z,14.80
2022-12-12T04:50:07.581Z,14.60
2022-12-12T04:53:21.289Z,14.87
2022-12-12T04:56:40.476Z,13.98
2022-12-12T04:59:51.645Z,13.90
2022-12-12T05:03:28.042Z,14.53
2022-12-12T05:06:43.016Z,14.73
2022-12-12T05:09:57.442Z,13.28
2022-12-12T05:13:17.980Z,13.83
2022-12-12T05:16:45.678Z,14.83
2022-12-12T05:19:59.087Z,15.20
2022-12-12T05:23:20.669Z,16.45
2022-12-12T05:26:48.995Z,14.98
2022-12-12T05:30:06.811Z,14.60
2022-12-12T05:33:18.743Z,14.85
2022-12-12T05:37:03.685Z,14.98
2022-12-12T05:40:26.256Z,15.63
2022-12-12T05:43:41.537Z,14.85
2022-12-12T05:46:54.961Z,15.70
2022-12-12T05:50:10.667Z,15.78
2022-12-12T05:53:28.301Z,16.32
2022-12-12T05:56:56.893Z,15.10
2022-12-12T06:00:21.259Z,15.38
2022-12-12T06:03:37.816Z,16.20
2022-12-12T06:07:00.235Z,15.32
2022-12-12T06:17:58.827Z,15.28
2022-12-12T06:21:43.676Z,15.18
2022-12-12T06:29:35.622Z,15.70
2022-12-12T06:36:38.636Z,15.35
2022-12-12T06:44:17.758Z,14.45
2022-12-12T06:48:00.381Z,14.68
2022-12-12T06:51:55.732Z,15.95
2022-12-12T07:09:06.582Z,15.03
2022-12-12T07:16:31.287Z,14.47
2022-12-12T07:19:50.648Z,15.80
2022-12-12T07:23:26.933Z,15.95
2022-12-12T07:31:01.492Z,15.78
2022-12-12T07:34:32.081Z,15.68
2022-12-12T07:37:47.937Z,15.00
2022-12-12T07:44:39.331Z,16.23
2022-12-12T07:48:15.199Z,17.30
2022-12-12T07:52:00.962Z,16.32
2022-12-12T07:55:20.864Z,16.93
2022-12-12T07:59:03.621Z,17.02
2022-12-12T08:02:28.610Z,16.23
2022-12-12T08:05:43.097Z,17.10
2022-12-12T08:08:55.819Z,15.53
2022-12-12T08:12:26.145Z,16.37
2022-12-12T08:15:47.858Z,16.17
2022-12-12T08:19:14.647Z,16.55
2022-12-12T08:22:51.658Z,15.78
2022-12-12T08:26:11.621Z,17.67
2022-12-12T08:29:32.597Z,16.77
2022-12-12T08:33:04.893Z,18.25
2022-12-12T08:37:28.604Z,17.85
2022-12-12T08:45:20.558Z,17.57
2022-12-12T08:48:50.443Z,17.65
2022-12-12T08:56:27.949Z,17.52
2022-12-12T08:59:58.983Z,16.67
2022-12-12T09:03:35.676Z,15.60
2022-12-12T09:07:08.657Z,16.95
2022-12-12T09:10:34.254Z,16.40
2022-12-12T09:13:57.920Z,16.37
2022-12-12T09:24:25.233Z,16.32
2022-12-12T09:28:11.302Z,16.27
2022-12-12T09:35:18.141Z,15.23
2022-12-12T09:38:38.271Z,14.68
2022-12-12T09:45:41.551Z,15.20
2022-12-12T09:49:09.931Z,15.65
2022-12-12T09:52:35.622Z,14.28
2022-12-12T09:56:13.356Z,15.72
2022-12-12T10:04:12.611Z,15.90
2022-12-12T10:08:01.315Z,16.02
2022-12-12T10:11:20.140Z,16.00
2022-12-12T10:14:39.195Z,15.70
2022-12-12T10:17:59.266Z,20.70
2022-12-12T10:21:12.824Z,25.00
2022-12-12T10:24:56.547Z,19.17
2022-12-12T10:52:58.213Z,13.20
2022-12-12T10:56:38.163Z,12.25
2022-12-12T11:00:07.077Z,4.67
2022-12-12T11:03:54.844Z,3.02
2022-12-12T11:07:31.987Z,3.67
2022-12-12T11:11:04.564Z,2.72
2022-12-12T11:14:25.771Z,2.22
2022-12-12T11:17:58.031Z,2.42
2022-12-12T11:21:33.190Z,1.65
2022-12-12T11:24:55.420Z,1.62
2022-12-12T11:28:18.404Z,1.60
2022-12-12T11:31:55.486Z,2.52
2022-12-12T11:35:24.600Z,3.12
2022-12-12T11:39:47.029Z,4.53
2022-12-12T11:42:53.324Z,5.45
2022-12-12T11:46:00.745Z,15.43
2022-12-12T11:57:36.968Z,6.47
2022-12-12T12:05:20.662Z,1.62
2022-12-12T12:09:29.813Z,1.60
2022-12-12T12:13:17.274Z,1.87
2022-12-12T12:21:11.079Z,1.90
2022-12-12T12:25:17.847Z,2.30
2022-12-12T12:29:20.477Z,1.90
2022-12-12T12:37:23.876Z,6.55
2022-12-12T12:41:24.152Z,7.25
2022-12-12T12:44:52.703Z,3.45
2022-12-12T12:48:17.515Z,2.80
2022-12-12T12:51:35.746Z,2.22
2022-12-12T12:55:22.451Z,2.30
2022-12-12T12:59:04.111Z,1.55
2022-12-12T13:03:03.841Z,2.45
2022-12-12T13:06:41.127Z,3.02
2022-12-12T13:10:23.725Z,3.52
2022-12-12T13:13:52.765Z,3.30
2022-12-12T13:17:16.680Z,3.22
2022-12-12T13:20:46.404Z,2.30
2022-12-12T13:24:25.108Z,1.87
2022-12-12T13:28:04.875Z,2.17
2022-12-12T13:32:04.231Z,1.92
2022-12-12T13:35:23.783Z,1.40
2022-12-12T13:38:43.869Z,1.00
2022-12-12T13:42:25.250Z,1.30
2022-12-12T13:45:50.389Z,5.37
2022-12-12T13:49:03.414Z,2.42
2022-12-12T13:52:55.542Z,4.95
2022-12-12T13:56:57.920Z,2.95
2022-12-12T14:00:27.712Z,3.02
2022-12-12T14:03:46.409Z,6.62
2022-12-12T14:10:50.368Z,4.45
2022-12-12T14:14:09.264Z,3.62
2022-12-12T14:17:27.249Z,6.37
2022-12-12T14:20:56.232Z,4.12
2022-12-12T14:24:17.799Z,6.40
2022-12-12T14:27:41.636Z,10.03
2022-12-12T14:35:45.629Z,7.83
2022-12-12T14:39:15.577Z,5.50
2022-12-12T14:43:20.523Z,5.42
2022-12-12T14:46:18.381Z,10.58
2022-12-12T14:49:51.393Z,6.37
2022-12-12T15:00:55.417Z,10.08
2022-12-12T15:04:38.808Z,11.65
2022-12-12T15:08:21.152Z,7.90
2022-12-12T15:15:48.777Z,17.67
2022-12-12T15:19:08.453Z,15.85
2022-12-12T15:22:24.208Z,12.37
2022-12-12T15:25:36.866Z,9.25
2022-12-12T15:28:50.236Z,8.90
2022-12-12T15:32:03.391Z,8.60
2022-12-12T15:35:21.126Z,9.45
2022-12-12T15:38:30.943Z,9.15
2022-12-12T15:41:42.353Z,10.45
2022-12-12T15:44:52.057Z,10.20
2022-12-12T15:48:06.205Z,10.45
2022-12-12T15:51:25.248Z,9.48
2022-12-12T15:54:35.620Z,15.35
2022-12-12T15:58:20.764Z,14.78
2022-12-12T16:01:38.033Z,11.03
2022-12-12T16:04:55.174Z,11.35
2022-12-12T16:08:12.806Z,11.75
2022-12-12T16:11:58.130Z,11.18
2022-12-12T16:15:45.790Z,11.80
2022-12-12T16:19:20.064Z,10.35
2022-12-12T16:23:06.845Z,10.15
2022-12-12T16:26:16.654Z,10.35
2022-12-12T16:29:38.030Z,9.30
2022-12-12T16:32:49.211Z,8.78
2022-12-12T16:36:09.472Z,8.88
2022-12-12T16:39:24.698Z,10.43
2022-12-12T16:42:36.573Z,9.73
2022-12-12T16:45:50.599Z,8.75
2022-12-12T16:48:59.513Z,9.25
2022-12-12T16:52:11.954Z,11.60
2022-12-12T16:55:38.695Z,14.13
2022-12-12T16:58:54.524Z,13.15
2022-12-12T17:02:06.808Z,9.50
2022-12-12T17:05:22.697Z,13.70
2022-12-12T17:11:47.009Z,14.70
2022-12-12T17:14:54.729Z,13.50
2022-12-12T17:18:05.947Z,18.95
2022-12-12T17:24:28.341Z,13.68
2022-12-12T17:27:37.389Z,18.55
2022-12-12T17:30:49.497Z,16.00
2022-12-12T17:34:00.952Z,12.18
2022-12-12T17:37:16.161Z,12.68
2022-12-12T17:40:33.299Z,10.88
2022-12-12T17:43:41.152Z,15.30
2022-12-12T17:46:49.808Z,11.30
2022-12-12T17:50:02.852Z,10.20
2022-12-12T17:53:17.914Z,12.23
2022-12-12T17:56:33.199Z,12.40
2022-12-12T18:02:55.219Z,9.70
2022-12-12T18:06:12.382Z,9.40
2022-12-12T18:09:22.005Z,9.48
2022-12-12T18:12:33.709Z,10.88
2022-12-12T18:16:01.733Z,10.20
2022-12-12T18:22:25.587Z,8.28
2022-12-12T18:25:41.850Z,8.65
2022-12-12T18:28:55.172Z,8.85
2022-12-12T18:32:09.057Z,9.43
2022-12-12T18:35:26.933Z,8.83
2022-12-12T18:38:45.727Z,9.98
2022-12-12T18:41:57.454Z,8.98
2022-12-12T18:45:01.694Z,9.90
2022-12-12T18:48:14.404Z,9.08
2022-12-12T18:51:30.191Z,10.45
2022-12-12T18:54:43.204Z,14.05
2022-12-12T18:57:58.403Z,11.35
2022-12-12T19:01:10.684Z,12.20
2022-12-12T19:04:23.727Z,11.68
2022-12-12T19:08:00.963Z,12.18
2022-12-12T19:11:15.900Z,13.00
2022-12-12T19:14:45.793Z,15.80
2022-12-12T19:17:51.886Z,14.10
2022-12-12T19:21:07.756Z,14.35
2022-12-12T19:24:23.329Z,14.80
2022-12-12T19:27:35.807Z,14.30
2022-12-12T19:30:50.448Z,14.33
2022-12-12T19:34:04.489Z,15.35
2022-12-12T19:37:15.757Z,15.68
2022-12-12T19:40:24.698Z,14.68
2022-12-12T19:43:38.659Z,19.40
2022-12-12T19:46:56.099Z,14.73
2022-12-12T19:50:07.015Z,14.98
2022-12-12T19:53:21.606Z,15.75
2022-12-12T19:56:44.258Z,16.57
2022-12-12T19:59:59.742Z,17.77
2022-12-12T20:03:21.475Z,16.77
2022-12-12T20:06:48.511Z,16.75
2022-12-12T20:10:31.252Z,17.12
2022-12-12T20:13:48.290Z,16.95
2022-12-12T20:16:55.779Z,16.73
2022-12-12T20:20:05.083Z,16.85
2022-12-12T20:23:23.439Z,19.10
2022-12-12T20:26:41.882Z,18.55
2022-12-12T20:29:59.602Z,18.92
2022-12-12T20:33:15.206Z,19.17
2022-12-12T20:36:40.440Z,16.52
2022-12-12T20:39:57.562Z,16.05
2022-12-12T20:43:15.883Z,16.12
2022-12-12T20:46:43.770Z,16.95
2022-12-12T20:50:03.215Z,20.10
2022-12-12T20:53:15.222Z,16.93
2022-12-12T20:56:33.518Z,15.88
2022-12-12T20:59:52.007Z,15.90
2022-12-12T21:03:01.147Z,14.20
2022-12-12T21:06:10.020Z,16.60
2022-12-12T21:09:26.724Z,15.50
2022-12-12T21:12:35.566Z,14.73
2022-12-12T21:15:51.071Z,14.83
2022-12-12T21:19:06.421Z,14.18
2022-12-12T21:22:17.518Z,14.45
2022-12-12T21:25:29.967Z,14.70
2022-12-12T21:28:44.139Z,14.55
2022-12-12T21:31:58.127Z,14.87
2022-12-12T21:35:11.067Z,15.43
2022-12-12T21:38:19.370Z,14.25
2022-12-12T21:41:33.323Z,16.15
2022-12-12T21:44:49.622Z,16.67
2022-12-12T21:47:59.026Z,17.32
2022-12-12T21:51:11.674Z,17.82
2022-12-12T21:54:34.874Z,16.65
2022-12-12T21:57:50.815Z,16.60
2022-12-12T22:01:08.155Z,20.32
2022-12-12T22:04:16.480Z,18.57
2022-12-12T22:07:17.587Z,19.75
2022-12-12T22:10:37.922Z,19.70
2022-12-12T22:13:46.951Z,18.57
2022-12-12T22:16:56.903Z,19.70
2022-12-12T22:20:06.554Z,18.82
2022-12-12T22:23:17.024Z,18.98
2022-12-12T22:26:36.700Z,20.00
2022-12-12T22:29:52.593Z,18.37
2022-12-12T22:33:07.152Z,18.82
2022-12-12T22:36:26.103Z,18.50
2022-12-12T22:39:44.230Z,17.73
2022-12-12T22:43:05.059Z,18.35
2022-12-12T22:46:22.387Z,19.37
2022-12-12T22:49:34.778Z,19.90
2022-12-12T22:52:45.395Z,19.35
2022-12-12T22:55:57.002Z,19.15
2022-12-12T22:59:11.083Z,19.10
2022-12-12T23:02:28.964Z,18.07
2022-12-12T23:05:41.416Z,19.87
2022-12-12T23:08:49.860Z,18.40
2022-12-12T23:12:08.113Z,18.70
2022-12-12T23:15:20.252Z,20.68
2022-12-12T23:18:36.509Z,19.37
2022-12-12T23:21:51.827Z,18.02
2022-12-12T23:25:05.883Z,18.73
2022-12-12T23:28:13.760Z,18.73
2022-12-12T23:31:30.891Z,19.17
2022-12-12T23:34:43.716Z,18.50
2022-12-12T23:37:55.693Z,19.07
2022-12-12T23:41:06.294Z,18.07
2022-12-12T23:44:18.748Z,16.95
2022-12-12T23:47:34.501Z,17.15
2022-12-12T23:50:49.981Z,16.70
2022-12-12T23:54:02.372Z,17.07
2022-12-12T23:57:19.658Z,16.52
